AirNav   MODERNIZE NOT PRIVATIZE ATC
 
 1531 users online  

26NC Boonville Airport
Boonville, North Carolina, USA

GOING TO BOONVILLE?


FAA INFORMATION EFFECTIVE 20 JULY 2017

Location

FAA Identifier: 26NC
Lat/Long: 36-13-22.4890N / 080-42-56.2360W
36-13.374817N / 080-42.937267W
36.2229136 / -80.7156211
(estimated)
Elevation: 1003 ft. / 306 m (estimated)
Variation: 06W (1985)
From city: 1 mile SW of BOONVILLE, NC
Time zone: UTC -4 (UTC -5 during Standard Time)
Zip code: 27011

Airport Operations

Airport use: Private use. Permission required prior to landing
Activation date: 10/1963
Control tower: no
ARTCC: ATLANTA CENTER
FSS: RALEIGH FLIGHT SERVICE STATION
Attendance: UNATNDD
Wind indicator: yes
Segmented circle: no

Airport Communications

WX AWOS-3 at MWK (16 nm NE): 121.125 (336-789-2299)
WX AWOS-3 at UKF (19 nm W): 126.625 (336-696-3788)

Nearby radio navigation aids

VOR radial/distance  VOR name  Freq  Var
BZMr056/33.2BARRETTS MOUNTAIN VOR/DME110.8006W
GSOr290/37.4GREENSBORO VORTAC116.2003W

 
NDB name  Hdg/Dist  Freq  Var  ID
ZEPHYR182/5.332608WZEF --.. . ..-.
WILKI076/19.720906WUKF ..- -.- ..-.
ASHEE120/31.941007WJUH .--- ..- ....

Airport Services

Airframe service: NONE
Powerplant service: NONE
Bottled oxygen: NONE
Bulk oxygen: NONE

Runway Information

Runway 1/19

Dimensions: 1500 x 50 ft. / 457 x 15 m
Surface: turf, in good condition
RUNWAY 1  RUNWAY 19
Traffic pattern: leftleft
Obstructions: 15 ft. road, 30 ft. left of centerline15 ft. road, 30 ft. right of centerline

Airport Ownership and Management from official FAA records

Ownership: Privately-owned
Owner: HARVEY & DANIEL SMITH
3901 BAPTIST CHURCH RD
BOONVILLE, NC 27011-7812
Phone (336) 466-2017
Manager: HARVEY & DANIEL SMITH
234 BAPTIST CHURCH RD
BOONVILLE, NC 27011-8618
Phone 336-367-7365

Airport Operational Statistics

Aircraft based on the field: 4
Single engine airplanes: 4
    
Aircraft operations: avg 29/week *
67% local general aviation
33% transient general aviation
* for 12-month period ending 29 February 1996

Additional Remarks

WHITE REFLECTORS LCTD ON EAST SIDE OF RWY ONLY INDICATING RWY EDGE.
RWY 1 UPHILL LANDING.
3 FT DITCH AT BOTH ENDS OF RY; GREATER THAN 25 FT BLDGS 40 FT EAST SIDE OF RY.
DEPARTURES TO THE SOUTH - LANDINGS TO THE NORTH DUE TO OBSTRUCTIONS AND SLOPING RY.

Instrument Procedures

There are no published instrument procedures at 26NC.

Some nearby airports with instrument procedures:

KZEF - Elkin Municipal Airport (5 nm NW)
KMWK - Mount Airy/Surry County Airport (16 nm NE)
KUKF - Wilkes County Airport (19 nm W)
8A7 - Twin Lakes Airport (22 nm SE)
KINT - Smith Reynolds Airport (24 nm E)
 
Loc | Ops | Rwys | IFR | FBO | Links
Com | Nav | Svcs | Stats | Notes


 
Area around 26NC (Boonville Airport)
 
Road maps at: MapQuest Bing Google
 
Aerial photo
No photo
 
Sectional chart

 
Airport distance calculator
Flying to Boonville Airport? Find the distance to fly.

From to 26NC

Sunrise and sunset
Times for 21-Jul-2017
 Local
(UTC-4)
 Zulu
(UTC)
Morning civil twilight05:5309:53
Sunrise06:2210:22
Sunset20:3600:36
Evening civil twilight21:0501:05

Current date and time
Zulu (UTC)  21-Jul-2017 14:37:16
Local (UTC-4)  21-Jul-2017 10:37:16
 
METAR
KMWK 
17nm NE 
211405Z AUTO 00000KT 10SM CLR 30/22 A3010 RMK AO2 T02950216
KUKF 
19nm W 
211405Z AUTO 00000KT 10SM BKN080 28/22 A3013 RMK AO2
KINT 
25nm E 
211354Z VRB05KT 10SM CLR 31/19 A3007 RMK AO2 SLP169 T03060189
KSVH 
31nm S 
211405Z AUTO 00000KT 10SM CLR 30/21 A3007 RMK AO2 T02990207
KHLX 
33nm N 
211415Z AUTO 00000KT 10SM CLR 26/17 A3016 RMK AO2 T02600174
KEXX 
33nm SE 
211405Z AUTO 00000KT 10SM CLR 29/22 A3005 RMK AO2 T02850217
TAF
KINT 
25nm E 
211120Z 2112/2212 24005KT P6SM SCT060 BKN250 FM211800 25005KT P6SM SCT050 BKN250 PROB30 2121/2201 5SM -TSRA BR BKN050CB
NOTAMs
Click for the latest NOTAMs
NOTAMs are issued by the DoD/FAA and will open in a separate window not controlled by AirNav.

 

 
 

Would you like to see your business listed on this page?

 If your business provides an interesting product or service to pilots, flight crews, aircraft, or users of the Boonville Airport, you should consider listing it here.  To start the listing process, click on the button below
 
Add a business
 

Other Pages about Boonville Airport

Update a link
 
Copyright © AirNav, LLC. All rights reserved. Privacy Policy  Contact